sensor_id;sensor_type;location;lat;lon;timestamp;pressure;altitude;pressure_sealevel;temperature;humidity
3748;BME280;1889;50.058;8.688;2023-06-14T00:00:07;99889.03;;;21.98;36.26
3748;BME280;1889;50.058;8.688;2023-06-14T00:02:38;99885.58;;;21.96;36.57
3748;BME280;1889;50.058;8.688;2023-06-14T00:05:08;99883.95;;;21.94;36.47
3748;BME280;1889;50.058;8.688;2023-06-14T00:07:39;99884.87;;;21.87;36.86
3748;BME280;1889;50.058;8.688;2023-06-14T00:10:11;99878.69;;;21.80;37.20
3748;BME280;1889;50.058;8.688;2023-06-14T00:12:41;99888.98;;;21.46;37.88
3748;BME280;1889;50.058;8.688;2023-06-14T00:15:10;99892.04;;;21.67;37.33
3748;BME280;1889;50.058;8.688;2023-06-14T00:17:39;99892.04;;;21.67;37.33
3748;BME280;1889;50.058;8.688;2023-06-14T00:20:09;99887.50;;;21.75;36.50
3748;BME280;1889;50.058;8.688;2023-06-14T00:22:40;99887.92;;;21.68;36.72
3748;BME280;1889;50.058;8.688;2023-06-14T00:25:09;99892.52;;;21.66;36.72
3748;BME280;1889;50.058;8.688;2023-06-14T00:27:38;99890.48;;;21.50;37.75
3748;BME280;1889;50.058;8.688;2023-06-14T00:30:08;99894.30;;;21.26;37.90
3748;BME280;1889;50.058;8.688;2023-06-14T00:32:37;99895.68;;;21.46;38.00
3748;BME280;1889;50.058;8.688;2023-06-14T00:35:06;99890.30;;;21.53;37.16
3748;BME280;1889;50.058;8.688;2023-06-14T00:37:36;99890.30;;;21.53;37.75
3748;BME280;1889;50.058;8.688;2023-06-14T00:40:06;99895.80;;;21.57;36.75
3748;BME280;1889;50.058;8.688;2023-06-14T00:42:35;99894.53;;;21.43;37.50
3748;BME280;1889;50.058;8.688;2023-06-14T00:45:04;99894.08;;;21.37;37.27
3748;BME280;1889;50.058;8.688;2023-06-14T00:47:35;99893.73;;;21.28;37.46
3748;BME280;1889;50.058;8.688;2023-06-14T00:50:07;99895.04;;;21.36;37.16
3748;BME280;1889;50.058;8.688;2023-06-14T00:52:36;99888.25;;;21.37;37.29
3748;BME280;1889;50.058;8.688;2023-06-14T00:55:06;99892.27;;;20.89;38.38
3748;BME280;1889;50.058;8.688;2023-06-14T00:57:35;99886.98;;;20.94;38.25
3748;BME280;1889;50.058;8.688;2023-06-14T01:00:06;99891.38;;;20.95;37.97
3748;BME280;1889;50.058;8.688;2023-06-14T01:02:37;99894.73;;;20.99;37.80
3748;BME280;1889;50.058;8.688;2023-06-14T01:05:07;99894.98;;;21.09;38.23
3748;BME280;1889;50.058;8.688;2023-06-14T01:13:28;99897.80;;;20.86;38.43
3748;BME280;1889;50.058;8.688;2023-06-14T01:15:58;99898.48;;;20.82;38.44
3748;BME280;1889;50.058;8.688;2023-06-14T01:18:28;99895.21;;;20.99;38.05
3748;BME280;1889;50.058;8.688;2023-06-14T01:20:58;99895.95;;;21.01;38.03
3748;BME280;1889;50.058;8.688;2023-06-14T01:23:28;99891.80;;;20.54;38.52
3748;BME280;1889;50.058;8.688;2023-06-14T01:25:59;99897.44;;;20.71;38.62
3748;BME280;1889;50.058;8.688;2023-06-14T01:28:31;99891.98;;;20.72;39.00
3748;BME280;1889;50.058;8.688;2023-06-14T01:31:03;99894.00;;;20.83;38.70
3748;BME280;1889;50.058;8.688;2023-06-14T01:33:33;99888.34;;;20.87;38.40
3748;BME280;1889;50.058;8.688;2023-06-14T01:36:05;99897.48;;;21.05;37.69
3748;BME280;1889;50.058;8.688;2023-06-14T01:38:36;99897.98;;;20.76;38.38
3748;BME280;1889;50.058;8.688;2023-06-14T01:41:06;99895.62;;;20.71;38.24
3748;BME280;1889;50.058;8.688;2023-06-14T01:43:36;99893.98;;;20.69;38.72
3748;BME280;1889;50.058;8.688;2023-06-14T01:46:06;99895.16;;;20.58;38.66
3748;BME280;1889;50.058;8.688;2023-06-14T01:48:37;99892.27;;;20.68;38.44
3748;BME280;1889;50.058;8.688;2023-06-14T01:51:06;99894.00;;;20.83;38.07
3748;BME280;1889;50.058;8.688;2023-06-14T01:53:35;99890.84;;;20.69;38.56
3748;BME280;1889;50.058;8.688;2023-06-14T01:56:04;99900.88;;;20.73;38.44
3748;BME280;1889;50.058;8.688;2023-06-14T01:58:34;99893.63;;;20.75;38.67
3748;BME280;1889;50.058;8.688;2023-06-14T02:01:03;99899.63;;;20.71;38.26
3748;BME280;1889;50.058;8.688;2023-06-14T02:03:33;99899.63;;;20.71;38.26
3748;BME280;1889;50.058;8.688;2023-06-14T02:06:02;99902.52;;;20.75;38.27
3748;BME280;1889;50.058;8.688;2023-06-14T02:08:31;99896.66;;;20.69;38.35
3748;BME280;1889;50.058;8.688;2023-06-14T02:11:00;99895.24;;;20.63;38.55
3748;BME280;1889;50.058;8.688;2023-06-14T02:13:30;99892.58;;;20.42;38.67
3748;BME280;1889;50.058;8.688;2023-06-14T02:15:59;99897.24;;;20.45;38.94
3748;BME280;1889;50.058;8.688;2023-06-14T02:18:28;99894.38;;;20.55;38.76
3748;BME280;1889;50.058;8.688;2023-06-14T02:20:57;99898.30;;;20.64;38.64
3748;BME280;1889;50.058;8.688;2023-06-14T02:23:26;99904.03;;;20.65;38.92
3748;BME280;1889;50.058;8.688;2023-06-14T02:25:56;99897.05;;;20.70;38.25
3748;BME280;1889;50.058;8.688;2023-06-14T02:28:25;99897.04;;;20.77;38.20
3748;BME280;1889;50.058;8.688;2023-06-14T02:30:54;99901.45;;;20.56;38.79
3748;BME280;1889;50.058;8.688;2023-06-14T02:33:24;99898.95;;;20.68;38.34
3748;BME280;1889;50.058;8.688;2023-06-14T02:35:53;99904.03;;;20.65;38.24
3748;BME280;1889;50.058;8.688;2023-06-14T02:38:24;99907.09;;;20.66;38.35
3748;BME280;1889;50.058;8.688;2023-06-14T02:40:53;99907.84;;;20.61;38.50
3748;BME280;1889;50.058;8.688;2023-06-14T02:43:22;99903.74;;;20.63;38.89
3748;BME280;1889;50.058;8.688;2023-06-14T02:45:52;99905.55;;;20.62;38.73
3748;BME280;1889;50.058;8.688;2023-06-14T02:48:21;99908.52;;;20.65;39.04
3748;BME280;1889;50.058;8.688;2023-06-14T02:50:50;99905.94;;;20.63;38.92
3748;BME280;1889;50.058;8.688;2023-06-14T02:53:20;99910.52;;;20.61;39.16
3748;BME280;1889;50.058;8.688;2023-06-14T02:55:49;99908.91;;;20.59;39.48
3748;BME280;1889;50.058;8.688;2023-06-14T02:58:18;99908.32;;;20.53;39.11
3748;BME280;1889;50.058;8.688;2023-06-14T03:00:48;99909.57;;;20.55;39.61
3748;BME280;1889;50.058;8.688;2023-06-14T03:03:17;99917.50;;;20.42;39.50
3748;BME280;1889;50.058;8.688;2023-06-14T03:05:48;99917.50;;;20.42;39.50
3748;BME280;1889;50.058;8.688;2023-06-14T03:08:19;99922.52;;;20.33;39.80
3748;BME280;1889;50.058;8.688;2023-06-14T03:10:49;99923.39;;;20.03;40.44
3748;BME280;1889;50.058;8.688;2023-06-14T03:13:18;99927.64;;;19.77;40.79
3748;BME280;1889;50.058;8.688;2023-06-14T03:15:51;99925.19;;;19.66;41.11
3748;BME280;1889;50.058;8.688;2023-06-14T03:18:20;99935.42;;;19.73;40.58
3748;BME280;1889;50.058;8.688;2023-06-14T03:20:50;99935.42;;;19.73;40.58
3748;BME280;1889;50.058;8.688;2023-06-14T03:23:20;99936.72;;;19.89;40.58
3748;BME280;1889;50.058;8.688;2023-06-14T03:25:49;99935.27;;;19.54;41.36
3748;BME280;1889;50.058;8.688;2023-06-14T03:28:19;99941.48;;;19.46;41.44
3748;BME280;1889;50.058;8.688;2023-06-14T03:30:48;99946.58;;;19.73;41.26
3748;BME280;1889;50.058;8.688;2023-06-14T03:33:18;99948.16;;;19.84;40.71
3748;BME280;1889;50.058;8.688;2023-06-14T03:35:47;99954.59;;;19.73;41.13
3748;BME280;1889;50.058;8.688;2023-06-14T03:38:17;99948.08;;;19.86;40.78
3748;BME280;1889;50.058;8.688;2023-06-14T03:40:47;99954.17;;;19.88;40.67
3748;BME280;1889;50.058;8.688;2023-06-14T03:43:16;99956.67;;;19.91;40.50
3748;BME280;1889;50.058;8.688;2023-06-14T03:45:45;99961.84;;;19.94;40.73
3748;BME280;1889;50.058;8.688;2023-06-14T03:48:15;99961.84;;;19.94;40.73
3748;BME280;1889;50.058;8.688;2023-06-14T03:50:44;99959.92;;;19.96;40.61
3748;BME280;1889;50.058;8.688;2023-06-14T03:53:13;99967.55;;;19.95;40.83
3748;BME280;1889;50.058;8.688;2023-06-14T03:55:43;99967.25;;;19.85;40.75
3748;BME280;1889;50.058;8.688;2023-06-14T03:58:13;99970.48;;;19.83;40.70
3748;BME280;1889;50.058;8.688;2023-06-14T04:00:42;99986.78;;;19.63;41.47
3748;BME280;1889;50.058;8.688;2023-06-14T04:03:13;99988.03;;;19.64;41.52
3748;BME280;1889;50.058;8.688;2023-06-14T04:05:43;99988.03;;;19.64;41.52
3748;BME280;1889;50.058;8.688;2023-06-14T04:08:14;99978.27;;;19.79;41.03
3748;BME280;1889;50.058;8.688;2023-06-14T04:10:44;99986.61;;;19.66;41.62
3748;BME280;1889;50.058;8.688;2023-06-14T04:13:13;99992.66;;;19.92;40.85
3748;BME280;1889;50.058;8.688;2023-06-14T04:15:43;99995.38;;;19.84;41.03
3748;BME280;1889;50.058;8.688;2023-06-14T04:18:14;99999.33;;;19.69;41.96
3748;BME280;1889;50.058;8.688;2023-06-14T04:20:43;99999.33;;;19.69;41.96
3748;BME280;1889;50.058;8.688;2023-06-14T04:23:13;99996.61;;;19.38;42.64
3748;BME280;1889;50.058;8.688;2023-06-14T04:25:43;100001.14;;;19.69;42.20
3748;BME280;1889;50.058;8.688;2023-06-14T04:28:17;100005.19;;;18.96;43.46
3748;BME280;1889;50.058;8.688;2023-06-14T04:30:47;100003.02;;;19.11;43.31
3748;BME280;1889;50.058;8.688;2023-06-14T04:33:17;100015.72;;;19.30;42.87
3748;BME280;1889;50.058;8.688;2023-06-14T04:35:46;100015.72;;;19.30;42.87
3748;BME280;1889;50.058;8.688;2023-06-14T04:38:16;100016.94;;;19.65;42.71
3748;BME280;1889;50.058;8.688;2023-06-14T04:40:46;100016.94;;;19.65;42.71
3748;BME280;1889;50.058;8.688;2023-06-14T04:43:16;100020.98;;;19.32;43.09
3748;BME280;1889;50.058;8.688;2023-06-14T04:45:46;100014.11;;;19.28;43.68
3748;BME280;1889;50.058;8.688;2023-06-14T04:48:16;100014.11;;;19.28;43.68
3748;BME280;1889;50.058;8.688;2023-06-14T04:50:47;100018.98;;;19.44;42.98
3748;BME280;1889;50.058;8.688;2023-06-14T04:53:16;100017.02;;;19.48;42.90
3748;BME280;1889;50.058;8.688;2023-06-14T04:55:47;100020.50;;;19.72;42.65
3748;BME280;1889;50.058;8.688;2023-06-14T04:58:16;100024.51;;;19.72;42.82
3748;BME280;1889;50.058;8.688;2023-06-14T05:00:46;100025.25;;;19.67;42.91
3748;BME280;1889;50.058;8.688;2023-06-14T05:03:15;100027.09;;;19.74;42.77
3748;BME280;1889;50.058;8.688;2023-06-14T05:05:46;100023.07;;;19.90;42.67
3748;BME280;1889;50.058;8.688;2023-06-14T05:08:15;100033.84;;;19.88;42.52
3748;BME280;1889;50.058;8.688;2023-06-14T05:10:45;100033.84;;;19.88;42.52
3748;BME280;1889;50.058;8.688;2023-06-14T05:13:14;100036.21;;;20.01;42.29
3748;BME280;1889;50.058;8.688;2023-06-14T05:15:43;100032.89;;;19.89;42.64
3748;BME280;1889;50.058;8.688;2023-06-14T05:18:12;100034.75;;;19.80;42.87
3748;BME280;1889;50.058;8.688;2023-06-14T05:20:43;100031.22;;;19.79;42.91
3748;BME280;1889;50.058;8.688;2023-06-14T05:23:12;100034.56;;;19.36;43.80
3748;BME280;1889;50.058;8.688;2023-06-14T05:25:45;100037.84;;;19.17;44.07
3748;BME280;1889;50.058;8.688;2023-06-14T05:28:14;100043.97;;;18.86;45.02
3748;BME280;1889;50.058;8.688;2023-06-14T05:30:44;100044.30;;;18.71;45.84
3748;BME280;1889;50.058;8.688;2023-06-14T05:33:14;100044.30;;;18.71;45.84
3748;BME280;1889;50.058;8.688;2023-06-14T05:35:43;100055.57;;;18.85;45.58
3748;BME280;1889;50.058;8.688;2023-06-14T05:38:13;100041.42;;;19.24;44.89
3748;BME280;1889;50.058;8.688;2023-06-14T05:40:42;100048.55;;;19.57;44.56
3748;BME280;1889;50.058;8.688;2023-06-14T05:43:11;100048.55;;;19.57;44.56
3748;BME280;1889;50.058;8.688;2023-06-14T05:45:41;100045.28;;;19.43;44.45
3748;BME280;1889;50.058;8.688;2023-06-14T05:48:10;100051.08;;;19.27;44.50
3748;BME280;1889;50.058;8.688;2023-06-14T05:50:39;100049.84;;;19.41;45.11
3748;BME280;1889;50.058;8.688;2023-06-14T05:53:09;100053.97;;;19.55;44.95
3748;BME280;1889;50.058;8.688;2023-06-14T05:55:39;100053.97;;;19.55;44.95
3748;BME280;1889;50.058;8.688;2023-06-14T05:58:08;100058.16;;;19.52;44.92
3748;BME280;1889;50.058;8.688;2023-06-14T06:00:39;100059.89;;;19.44;44.19
3748;BME280;1889;50.058;8.688;2023-06-14T06:03:08;100068.91;;;19.98;43.44
3748;BME280;1889;50.058;8.688;2023-06-14T06:05:39;100068.91;;;19.98;43.44
3748;BME280;1889;50.058;8.688;2023-06-14T06:08:09;100069.83;;;19.90;44.00
3748;BME280;1889;50.058;8.688;2023-06-14T06:10:38;100066.63;;;20.22;43.59
3748;BME280;1889;50.058;8.688;2023-06-14T06:13:08;100082.24;;;19.75;44.19
3748;BME280;1889;50.058;8.688;2023-06-14T06:15:37;100084.63;;;19.48;44.76
3748;BME280;1889;50.058;8.688;2023-06-14T06:18:06;100079.02;;;19.93;44.16
3748;BME280;1889;50.058;8.688;2023-06-14T06:20:36;100086.40;;;19.56;44.73
3748;BME280;1889;50.058;8.688;2023-06-14T06:23:05;100083.58;;;19.75;44.58
3748;BME280;1889;50.058;8.688;2023-06-14T06:25:36;100083.58;;;19.75;44.58
3748;BME280;1889;50.058;8.688;2023-06-14T06:28:05;100083.73;;;19.72;44.57
3748;BME280;1889;50.058;8.688;2023-06-14T06:30:35;100080.23;;;19.47;44.73
3748;BME280;1889;50.058;8.688;2023-06-14T06:33:04;100092.40;;;19.53;45.18
3748;BME280;1889;50.058;8.688;2023-06-14T06:35:34;100089.27;;;20.00;44.40
3748;BME280;1889;50.058;8.688;2023-06-14T06:38:03;100089.27;;;20.00;44.40
3748;BME280;1889;50.058;8.688;2023-06-14T06:40:33;100099.69;;;19.89;44.94
3748;BME280;1889;50.058;8.688;2023-06-14T06:43:02;100099.69;;;19.89;44.94
3748;BME280;1889;50.058;8.688;2023-06-14T06:45:32;100097.20;;;20.25;44.18
3748;BME280;1889;50.058;8.688;2023-06-14T06:48:01;100100.66;;;20.27;44.52
3748;BME280;1889;50.058;8.688;2023-06-14T06:50:30;100097.48;;;19.89;45.02
3748;BME280;1889;50.058;8.688;2023-06-14T06:53:00;100103.61;;;20.29;44.57
3748;BME280;1889;50.058;8.688;2023-06-14T06:55:29;100102.75;;;20.29;44.47
3748;BME280;1889;50.058;8.688;2023-06-14T06:57:59;100105.91;;;20.12;44.85
3748;BME280;1889;50.058;8.688;2023-06-14T07:00:28;100096.38;;;20.31;44.36
3748;BME280;1889;50.058;8.688;2023-06-14T07:02:57;100104.14;;;20.36;44.46
3748;BME280;1889;50.058;8.688;2023-06-14T07:05:27;100106.61;;;20.54;43.90
3748;BME280;1889;50.058;8.688;2023-06-14T07:07:56;100107.28;;;20.35;43.42
3748;BME280;1889;50.058;8.688;2023-06-14T07:10:26;100095.48;;;20.24;43.69
3748;BME280;1889;50.058;8.688;2023-06-14T07:12:55;100095.48;;;20.24;43.69
3748;BME280;1889;50.058;8.688;2023-06-14T07:15:24;100104.41;;;20.54;43.40
3748;BME280;1889;50.058;8.688;2023-06-14T07:17:53;100104.98;;;20.89;42.49
3748;BME280;1889;50.058;8.688;2023-06-14T07:20:24;100103.83;;;20.93;41.84
3748;BME280;1889;50.058;8.688;2023-06-14T07:22:54;100101.47;;;21.10;41.29
3748;BME280;1889;50.058;8.688;2023-06-14T07:25:23;100097.54;;;21.08;41.36
3748;BME280;1889;50.058;8.688;2023-06-14T07:27:52;100086.39;;;21.16;40.67
3748;BME280;1889;50.058;8.688;2023-06-14T07:30:21;100098.08;;;21.29;40.46
3748;BME280;1889;50.058;8.688;2023-06-14T07:32:53;100106.56;;;21.57;39.84
3748;BME280;1889;50.058;8.688;2023-06-14T07:35:22;100101.72;;;21.56;39.86
3748;BME280;1889;50.058;8.688;2023-06-14T07:37:51;100103.80;;;21.58;39.79
3748;BME280;1889;50.058;8.688;2023-06-14T07:40:20;100104.36;;;21.78;39.51
3748;BME280;1889;50.058;8.688;2023-06-14T07:42:49;100103.30;;;21.87;39.39
3748;BME280;1889;50.058;8.688;2023-06-14T07:45:18;100104.32;;;21.92;39.23
3748;BME280;1889;50.058;8.688;2023-06-14T07:47:47;100099.14;;;22.10;38.94
3748;BME280;1889;50.058;8.688;2023-06-14T07:50:17;100090.11;;;22.18;38.61
3748;BME280;1889;50.058;8.688;2023-06-14T07:52:46;100090.27;;;21.88;39.75
3748;BME280;1889;50.058;8.688;2023-06-14T07:55:16;100099.91;;;21.91;39.40
3748;BME280;1889;50.058;8.688;2023-06-14T07:57:45;100094.00;;;21.86;39.43
3748;BME280;1889;50.058;8.688;2023-06-14T08:00:14;100094.50;;;21.78;40.06
3748;BME280;1889;50.058;8.688;2023-06-14T08:02:44;100094.50;;;21.78;40.06
3748;BME280;1889;50.058;8.688;2023-06-14T08:05:13;100104.23;;;22.00;39.77
3748;BME280;1889;50.058;8.688;2023-06-14T08:07:42;100112.93;;;21.90;40.08
3748;BME280;1889;50.058;8.688;2023-06-14T08:10:11;100108.55;;;21.82;40.30
3748;BME280;1889;50.058;8.688;2023-06-14T08:12:40;100107.45;;;21.43;39.81
3748;BME280;1889;50.058;8.688;2023-06-14T08:15:10;100108.77;;;21.79;39.55
3748;BME280;1889;50.058;8.688;2023-06-14T08:17:39;100112.00;;;22.05;39.38
3748;BME280;1889;50.058;8.688;2023-06-14T08:20:09;100105.38;;;21.82;38.83
3748;BME280;1889;50.058;8.688;2023-06-14T08:22:38;100115.59;;;21.56;39.03
3748;BME280;1889;50.058;8.688;2023-06-14T08:25:09;100115.09;;;21.49;39.39
3748;BME280;1889;50.058;8.688;2023-06-14T08:27:39;100110.22;;;21.63;39.33
3748;BME280;1889;50.058;8.688;2023-06-14T08:30:10;100112.58;;;21.89;39.04
3748;BME280;1889;50.058;8.688;2023-06-14T08:32:40;100108.62;;;22.08;38.87
3748;BME280;1889;50.058;8.688;2023-06-14T08:35:09;100116.58;;;21.96;38.92
3748;BME280;1889;50.058;8.688;2023-06-14T08:37:40;100109.31;;;21.84;38.99
3748;BME280;1889;50.058;8.688;2023-06-14T08:40:21;100105.72;;;22.19;38.97
3748;BME280;1889;50.058;8.688;2023-06-14T08:42:52;100106.91;;;22.34;38.77
3748;BME280;1889;50.058;8.688;2023-06-14T08:45:22;100104.28;;;22.40;38.65
3748;BME280;1889;50.058;8.688;2023-06-14T08:47:52;100104.05;;;22.50;38.36
3748;BME280;1889;50.058;8.688;2023-06-14T08:50:24;100109.90;;;22.50;37.96
3748;BME280;1889;50.058;8.688;2023-06-14T08:52:59;100116.19;;;22.56;37.45
3748;BME280;1889;50.058;8.688;2023-06-14T08:55:31;100117.43;;;22.57;37.93
3748;BME280;1889;50.058;8.688;2023-06-14T08:58:01;100117.43;;;22.57;37.93
3748;BME280;1889;50.058;8.688;2023-06-14T09:00:31;100110.01;;;22.68;37.74
3748;BME280;1889;50.058;8.688;2023-06-14T09:03:01;100109.14;;;22.74;37.51
3748;BME280;1889;50.058;8.688;2023-06-14T09:05:31;100111.50;;;22.72;37.45
3748;BME280;1889;50.058;8.688;2023-06-14T09:08:00;100119.48;;;22.46;37.20
3748;BME280;1889;50.058;8.688;2023-06-14T09:10:31;100119.48;;;22.46;37.20
3748;BME280;1889;50.058;8.688;2023-06-14T09:13:05;100112.94;;;22.31;36.75
3748;BME280;1889;50.058;8.688;2023-06-14T09:15:35;100118.20;;;22.32;36.47
3748;BME280;1889;50.058;8.688;2023-06-14T09:18:04;100124.05;;;22.59;36.78
3748;BME280;1889;50.058;8.688;2023-06-14T09:20:34;100114.75;;;22.97;36.49
3748;BME280;1889;50.058;8.688;2023-06-14T09:23:04;100119.53;;;22.99;37.13
3748;BME280;1889;50.058;8.688;2023-06-14T09:25:45;100109.55;;;23.13;36.77
3748;BME280;1889;50.058;8.688;2023-06-14T09:28:14;100120.64;;;22.76;36.27
3748;BME280;1889;50.058;8.688;2023-06-14T09:30:43;100114.19;;;22.72;36.68
3748;BME280;1889;50.058;8.688;2023-06-14T09:33:17;100118.83;;;22.70;36.99
3748;BME280;1889;50.058;8.688;2023-06-14T09:35:50;100119.48;;;22.46;36.65
3748;BME280;1889;50.058;8.688;2023-06-14T09:38:17;100123.89;;;22.48;37.37
3748;BME280;1889;50.058;8.688;2023-06-14T09:40:46;100127.27;;;22.64;37.43
3748;BME280;1889;50.058;8.688;2023-06-14T09:43:15;100132.81;;;22.75;37.49
3748;BME280;1889;50.058;8.688;2023-06-14T09:45:44;100121.20;;;22.48;37.35
3748;BME280;1889;50.058;8.688;2023-06-14T09:48:15;100128.81;;;22.41;37.76
3748;BME280;1889;50.058;8.688;2023-06-14T09:50:46;100129.86;;;22.19;37.58
3748;BME280;1889;50.058;8.688;2023-06-14T09:53:19;100127.17;;;22.19;37.87
3748;BME280;1889;50.058;8.688;2023-06-14T09:55:49;100127.59;;;22.32;37.67
3748;BME280;1889;50.058;8.688;2023-06-14T09:58:21;100126.95;;;22.29;37.61
3748;BME280;1889;50.058;8.688;2023-06-14T10:00:51;100123.03;;;22.47;36.92
3748;BME280;1889;50.058;8.688;2023-06-14T10:03:28;100122.94;;;22.75;36.86
3748;BME280;1889;50.058;8.688;2023-06-14T10:06:02;100125.78;;;22.79;37.22
3748;BME280;1889;50.058;8.688;2023-06-14T10:08:33;100118.52;;;23.07;37.00
3748;BME280;1889;50.058;8.688;2023-06-14T10:11:03;100112.78;;;23.31;36.72
3748;BME280;1889;50.058;8.688;2023-06-14T10:13:33;100122.08;;;23.33;36.30
3748;BME280;1889;50.058;8.688;2023-06-14T10:16:20;100116.06;;;23.42;35.50
3748;BME280;1889;50.058;8.688;2023-06-14T10:18:53;100120.16;;;22.77;35.70
3748;BME280;1889;50.058;8.688;2023-06-14T10:21:55;100115.45;;;22.54;36.81
3748;BME280;1889;50.058;8.688;2023-06-14T10:24:34;100112.39;;;22.92;36.37
3748;BME280;1889;50.058;8.688;2023-06-14T10:27:00;100110.28;;;22.51;36.38
3748;BME280;1889;50.058;8.688;2023-06-14T10:29:29;100109.05;;;22.29;36.98
3748;BME280;1889;50.058;8.688;2023-06-14T10:32:00;100114.52;;;22.67;36.99
3748;BME280;1889;50.058;8.688;2023-06-14T10:34:31;100117.43;;;22.97;37.15
3748;BME280;1889;50.058;8.688;2023-06-14T10:37:02;100117.16;;;23.45;36.40
3748;BME280;1889;50.058;8.688;2023-06-14T10:39:37;100121.36;;;23.36;35.55
3748;BME280;1889;50.058;8.688;2023-06-14T10:42:03;100117.33;;;22.98;36.19
3748;BME280;1889;50.058;8.688;2023-06-14T10:44:40;100114.52;;;22.67;36.62
3748;BME280;1889;50.058;8.688;2023-06-14T10:47:23;100109.67;;;22.79;37.26
3748;BME280;1889;50.058;8.688;2023-06-14T10:49:49;100103.89;;;23.11;36.48
3748;BME280;1889;50.058;8.688;2023-06-14T10:52:15;100104.81;;;23.04;35.90
3748;BME280;1889;50.058;8.688;2023-06-14T10:55:01;100102.84;;;23.13;36.10
3748;BME280;1889;50.058;8.688;2023-06-14T10:57:34;100104.99;;;23.08;36.64
3748;BME280;1889;50.058;8.688;2023-06-14T11:00:05;100102.00;;;23.44;35.73
3748;BME280;1889;50.058;8.688;2023-06-14T11:03:05;100106.24;;;23.97;35.84
3748;BME280;1889;50.058;8.688;2023-06-14T11:05:30;100113.02;;;24.21;35.36
3748;BME280;1889;50.058;8.688;2023-06-14T11:08:18;100113.95;;;24.62;34.54
3748;BME280;1889;50.058;8.688;2023-06-14T11:10:45;100116.88;;;24.35;34.41
3748;BME280;1889;50.058;8.688;2023-06-14T11:13:16;100116.16;;;24.62;34.42
3748;BME280;1889;50.058;8.688;2023-06-14T11:15:48;100117.63;;;24.37;33.62
3748;BME280;1889;50.058;8.688;2023-06-14T11:18:19;100112.61;;;24.67;33.82
3748;BME280;1889;50.058;8.688;2023-06-14T11:20:50;100107.72;;;24.67;32.86
3748;BME280;1889;50.058;8.688;2023-06-14T11:23:20;100114.98;;;24.78;33.71
3748;BME280;1889;50.058;8.688;2023-06-14T11:25:51;100114.58;;;25.06;33.25
3748;BME280;1889;50.058;8.688;2023-06-14T11:28:21;100108.76;;;25.34;32.82
3748;BME280;1889;50.058;8.688;2023-06-14T11:31:02;100111.84;;;24.54;33.08
3748;BME280;1889;50.058;8.688;2023-06-14T11:33:33;100107.12;;;24.75;33.69
3748;BME280;1889;50.058;8.688;2023-06-14T11:36:04;100108.47;;;24.75;33.98
3748;BME280;1889;50.058;8.688;2023-06-14T11:38:37;100112.03;;;24.40;34.11
3748;BME280;1889;50.058;8.688;2023-06-14T11:41:06;100113.88;;;24.21;34.19
3748;BME280;1889;50.058;8.688;2023-06-14T11:43:35;100114.84;;;24.44;33.87
3748;BME280;1889;50.058;8.688;2023-06-14T11:46:17;100108.55;;;24.56;33.63
3748;BME280;1889;50.058;8.688;2023-06-14T11:48:40;100104.19;;;24.43;33.28
3748;BME280;1889;50.058;8.688;2023-06-14T11:51:10;100109.97;;;24.79;32.86
3748;BME280;1889;50.058;8.688;2023-06-14T11:53:39;100104.84;;;24.52;33.03
3748;BME280;1889;50.058;8.688;2023-06-14T11:56:09;100110.88;;;24.55;32.81
3748;BME280;1889;50.058;8.688;2023-06-14T11:58:38;100112.34;;;24.65;32.95
3748;BME280;1889;50.058;8.688;2023-06-14T12:01:07;100104.86;;;24.57;32.99
3748;BME280;1889;50.058;8.688;2023-06-14T12:03:36;100111.63;;;23.97;33.37
3748;BME280;1889;50.058;8.688;2023-06-14T12:06:07;100110.55;;;24.00;33.97
3748;BME280;1889;50.058;8.688;2023-06-14T12:08:37;100112.38;;;24.41;33.75
3748;BME280;1889;50.058;8.688;2023-06-14T12:11:13;100109.99;;;23.76;33.42
3748;BME280;1889;50.058;8.688;2023-06-14T12:13:43;100111.91;;;23.87;34.24
3748;BME280;1889;50.058;8.688;2023-06-14T12:16:13;100115.25;;;23.90;34.31
3748;BME280;1889;50.058;8.688;2023-06-14T12:18:42;100112.63;;;24.38;33.21
3748;BME280;1889;50.058;8.688;2023-06-14T12:21:11;100102.86;;;24.78;32.36
3748;BME280;1889;50.058;8.688;2023-06-14T12:23:45;100106.73;;;24.97;32.46
3748;BME280;1889;50.058;8.688;2023-06-14T12:26:15;100102.23;;;25.15;32.46
3748;BME280;1889;50.058;8.688;2023-06-14T12:28:46;100116.08;;;25.16;32.29
3748;BME280;1889;50.058;8.688;2023-06-14T12:31:16;100111.57;;;25.33;32.39
3748;BME280;1889;50.058;8.688;2023-06-14T12:33:46;100111.70;;;25.48;31.65
3748;BME280;1889;50.058;8.688;2023-06-14T12:36:17;100110.98;;;25.63;32.00
3748;BME280;1889;50.058;8.688;2023-06-14T12:38:46;100111.24;;;25.65;32.26
3748;BME280;1889;50.058;8.688;2023-06-14T12:41:15;100112.17;;;26.09;31.21
3748;BME280;1889;50.058;8.688;2023-06-14T12:43:44;100114.71;;;26.27;30.36
3748;BME280;1889;50.058;8.688;2023-06-14T12:46:13;100107.64;;;26.09;30.52
3748;BME280;1889;50.058;8.688;2023-06-14T12:48:42;100107.72;;;26.25;31.01
3748;BME280;1889;50.058;8.688;2023-06-14T12:51:11;100106.96;;;26.39;30.43
3748;BME280;1889;50.058;8.688;2023-06-14T12:53:40;100103.49;;;26.48;29.92
3748;BME280;1889;50.058;8.688;2023-06-14T12:56:09;100097.73;;;25.48;30.62
3748;BME280;1889;50.058;8.688;2023-06-14T12:58:38;100101.14;;;25.23;31.20
3748;BME280;1889;50.058;8.688;2023-06-14T13:01:08;100104.09;;;25.87;30.44
3748;BME280;1889;50.058;8.688;2023-06-14T13:03:37;100098.06;;;26.05;30.27
3748;BME280;1889;50.058;8.688;2023-06-14T13:06:06;100107.04;;;26.00;30.40
3748;BME280;1889;50.058;8.688;2023-06-14T13:08:35;100113.88;;;26.15;30.07
3748;BME280;1889;50.058;8.688;2023-06-14T13:11:04;100115.33;;;26.25;29.89
3748;BME280;1889;50.058;8.688;2023-06-14T13:13:33;100116.05;;;25.62;30.42
3748;BME280;1889;50.058;8.688;2023-06-14T13:16:02;100108.05;;;25.82;30.11
3748;BME280;1889;50.058;8.688;2023-06-14T13:18:31;100105.19;;;25.12;30.78
3748;BME280;1889;50.058;8.688;2023-06-14T13:21:00;100111.09;;;25.56;31.27
3748;BME280;1889;50.058;8.688;2023-06-14T13:23:29;100112.20;;;25.36;30.40
3748;BME280;1889;50.058;8.688;2023-06-14T13:25:58;100110.66;;;24.99;31.25
3748;BME280;1889;50.058;8.688;2023-06-14T13:28:27;100110.72;;;25.21;31.88
3748;BME280;1889;50.058;8.688;2023-06-14T13:30:56;100111.41;;;25.06;31.61
3748;BME280;1889;50.058;8.688;2023-06-14T13:33:25;100116.94;;;25.22;32.23
3748;BME280;1889;50.058;8.688;2023-06-14T13:35:54;100113.30;;;25.28;30.80